BGT1914 ENSD-ENBR
Flight info
| Callsign | BGT1914 |
|---|---|
| Flight time | 0h 41m |
| Altitude | 10000 |
| Route | EVNAN DCT LUNUR |
| Aircraft | PA34/L-SDFGRY/S |
Departure
| Time | 2026-05-06 16:44 |
|---|---|
| Airport | Sandane Airport, Anda (ENSD) |
Arrival
| Time | 2026-05-06 17:25 |
|---|---|
| Airport | Bergen Airport, Flesland (ENBR) |
| Time | Latitude | Longitude | Altitude | Speed | Heading |
|---|---|---|---|---|---|
| 2026-05-06 16:09 | 62.10185 | 7.20184 | 59 ft | 1 kts | 239° |
| 2026-05-06 16:27 | 62.10184 | 7.20182 | 60 ft | 0 kts | 230° |
| 2026-05-06 16:27 | 62.10183 | 7.20181 | 60 ft | 0 kts | 230° |
| 2026-05-06 16:28 | 62.10182 | 7.20179 | 60 ft | 0 kts | 229° |
| 2026-05-06 16:28 | 62.10182 | 7.20178 | 60 ft | 0 kts | 229° |
| 2026-05-06 16:28 | 62.10181 | 7.20176 | 60 ft | 0 kts | 229° |
| 2026-05-06 16:28 | 62.10181 | 7.20174 | 64 ft | 0 kts | 229° |
| 2026-05-06 16:29 | 62.10180 | 7.20173 | 64 ft | 0 kts | 229° |
| 2026-05-06 16:29 | 62.10180 | 7.20172 | 61 ft | 0 kts | 227° |
| 2026-05-06 16:29 | 62.10177 | 7.20163 | 61 ft | 1 kts | 228° |
| 2026-05-06 16:29 | 62.10171 | 7.20147 | 61 ft | 1 kts | 229° |
| 2026-05-06 16:30 | 62.10164 | 7.20130 | 58 ft | 2 kts | 228° |
| 2026-05-06 16:30 | 62.10160 | 7.20119 | 58 ft | 2 kts | 227° |
| 2026-05-06 16:30 | 62.10150 | 7.20096 | 61 ft | 1 kts | 228° |
| 2026-05-06 16:30 | 62.10143 | 7.20079 | 61 ft | 2 kts | 228° |
| 2026-05-06 16:31 | 62.10136 | 7.20061 | 62 ft | 2 kts | 228° |
| 2026-05-06 16:31 | 62.10129 | 7.20045 | 62 ft | 2 kts | 234° |
| 2026-05-06 16:31 | 62.10122 | 7.20019 | 62 ft | 1 kts | 263° |
| 2026-05-06 16:31 | 62.10125 | 7.19998 | 62 ft | 3 kts | 313° |
| 2026-05-06 16:32 | 62.10141 | 7.19958 | 62 ft | 3 kts | 301° |
| 2026-05-06 16:32 | 62.10154 | 7.19924 | 62 ft | 3 kts | 316° |
| 2026-05-06 16:32 | 62.10169 | 7.19897 | 62 ft | 3 kts | 340° |
| 2026-05-06 16:32 | 62.10187 | 7.19895 | 62 ft | 3 kts | 44° |
| 2026-05-06 16:33 | 62.10198 | 7.19940 | 62 ft | 5 kts | 60° |
| 2026-05-06 16:33 | 62.10224 | 7.19979 | 63 ft | 5 kts | 342° |
| 2026-05-06 16:33 | 62.10246 | 7.19937 | 63 ft | 5 kts | 263° |
| 2026-05-06 16:34 | 62.10253 | 7.19742 | 63 ft | 10 kts | 303° |
| 2026-05-06 16:34 | 62.10380 | 7.19460 | 64 ft | 56 kts | 317° |
| 2026-05-06 16:34 | 62.10787 | 7.18707 | 150 ft | 95 kts | 316° |
| 2026-05-06 16:34 | 62.11330 | 7.17720 | 389 ft | 110 kts | 315° |
| 2026-05-06 16:35 | 62.11819 | 7.16353 | 717 ft | 121 kts | 293° |
| 2026-05-06 16:35 | 62.12033 | 7.14651 | 1161 ft | 121 kts | 269° |
| 2026-05-06 16:35 | 62.11911 | 7.12851 | 1556 ft | 123 kts | 246° |
| 2026-05-06 16:35 | 62.11345 | 7.11447 | 1876 ft | 130 kts | 223° |
| 2026-05-06 16:36 | 62.10673 | 7.10076 | 2182 ft | 138 kts | 222° |
| 2026-05-06 16:36 | 62.09951 | 7.08650 | 2509 ft | 145 kts | 226° |
| 2026-05-06 16:36 | 62.09333 | 7.06922 | 2863 ft | 149 kts | 242° |
| 2026-05-06 16:36 | 62.09094 | 7.04761 | 3264 ft | 152 kts | 272° |
| 2026-05-06 16:37 | 62.09226 | 7.02570 | 3689 ft | 150 kts | 277° |
| 2026-05-06 16:37 | 62.09452 | 7.00420 | 4106 ft | 148 kts | 284° |
| 2026-05-06 16:37 | 62.09822 | 6.98389 | 4539 ft | 146 kts | 291° |
| 2026-05-06 16:37 | 62.10271 | 6.96474 | 4954 ft | 143 kts | 292° |
| 2026-05-06 16:38 | 62.10431 | 6.94522 | 5338 ft | 129 kts | 261° |
| 2026-05-06 16:38 | 62.10246 | 6.92733 | 5737 ft | 120 kts | 250° |
| 2026-05-06 16:38 | 62.09970 | 6.91075 | 6169 ft | 117 kts | 244° |
| 2026-05-06 16:38 | 62.09613 | 6.89539 | 6566 ft | 115 kts | 238° |
| 2026-05-06 16:39 | 62.09194 | 6.88136 | 6933 ft | 114 kts | 233° |
| 2026-05-06 16:39 | 62.08665 | 6.86828 | 7229 ft | 119 kts | 223° |
| 2026-05-06 16:39 | 62.07995 | 6.85734 | 7508 ft | 123 kts | 215° |
| 2026-05-06 16:39 | 62.07171 | 6.85159 | 7786 ft | 128 kts | 191° |
| 2026-05-06 16:40 | 62.06258 | 6.85142 | 8091 ft | 134 kts | 182° |
| 2026-05-06 16:40 | 62.05314 | 6.85273 | 8379 ft | 137 kts | 181° |
| 2026-05-06 16:40 | 62.04359 | 6.85408 | 8683 ft | 139 kts | 182° |
| 2026-05-06 16:40 | 62.03392 | 6.85488 | 8990 ft | 140 kts | 184° |
| 2026-05-06 16:41 | 62.02415 | 6.85537 | 9303 ft | 141 kts | 184° |
| 2026-05-06 16:41 | 62.01432 | 6.85587 | 9623 ft | 142 kts | 184° |
| 2026-05-06 16:41 | 62.00459 | 6.85621 | 9927 ft | 142 kts | 185° |
| 2026-05-06 16:41 | 61.99406 | 6.85632 | 9932 ft | 161 kts | 185° |
| 2026-05-06 16:42 | 61.98238 | 6.85612 | 9927 ft | 173 kts | 185° |
| 2026-05-06 16:42 | 61.97029 | 6.85597 | 9919 ft | 174 kts | 184° |
| 2026-05-06 16:42 | 61.95815 | 6.85591 | 9911 ft | 175 kts | 184° |
| 2026-05-06 16:42 | 61.94605 | 6.85585 | 9906 ft | 173 kts | 185° |
| 2026-05-06 16:43 | 61.93419 | 6.85582 | 9980 ft | 169 kts | 185° |
| 2026-05-06 16:43 | 61.92243 | 6.85574 | 9991 ft | 170 kts | 185° |
| 2026-05-06 16:43 | 61.91076 | 6.85561 | 9997 ft | 170 kts | 185° |
| 2026-05-06 16:43 | 61.89884 | 6.85537 | 10004 ft | 172 kts | 185° |
| 2026-05-06 16:44 | 61.88684 | 6.85527 | 10004 ft | 173 kts | 185° |
| 2026-05-06 16:44 | 61.87471 | 6.85518 | 10012 ft | 176 kts | 185° |
| 2026-05-06 16:44 | 61.86241 | 6.85504 | 9993 ft | 177 kts | 185° |
| 2026-05-06 16:44 | 61.85006 | 6.85484 | 9986 ft | 177 kts | 185° |
| 2026-05-06 16:45 | 61.83775 | 6.85471 | 9983 ft | 177 kts | 185° |
| 2026-05-06 16:45 | 61.82536 | 6.85453 | 9992 ft | 179 kts | 185° |
| 2026-05-06 16:45 | 61.81286 | 6.85442 | 9998 ft | 181 kts | 184° |
| 2026-05-06 16:45 | 61.80041 | 6.85425 | 10004 ft | 182 kts | 185° |
| 2026-05-06 16:46 | 61.78765 | 6.85395 | 10006 ft | 184 kts | 185° |
| 2026-05-06 16:46 | 61.77483 | 6.85357 | 10008 ft | 185 kts | 186° |
| 2026-05-06 16:46 | 61.76225 | 6.84955 | 10008 ft | 182 kts | 201° |
| 2026-05-06 16:46 | 61.75080 | 6.83864 | 10003 ft | 180 kts | 208° |
| 2026-05-06 16:47 | 61.73932 | 6.82799 | 9991 ft | 180 kts | 206° |
| 2026-05-06 16:47 | 61.72777 | 6.81831 | 9993 ft | 179 kts | 204° |
| 2026-05-06 16:47 | 61.71613 | 6.80878 | 9997 ft | 180 kts | 205° |
| 2026-05-06 16:47 | 61.70468 | 6.79939 | 9990 ft | 178 kts | 205° |
| 2026-05-06 16:48 | 61.69322 | 6.78989 | 9974 ft | 175 kts | 205° |
| 2026-05-06 16:48 | 61.68199 | 6.78060 | 9964 ft | 172 kts | 205° |
| 2026-05-06 16:48 | 61.67091 | 6.77132 | 9970 ft | 171 kts | 205° |
| 2026-05-06 16:48 | 61.65982 | 6.76208 | 9972 ft | 171 kts | 205° |
| 2026-05-06 16:49 | 61.64878 | 6.75270 | 9980 ft | 172 kts | 205° |
| 2026-05-06 16:49 | 61.63763 | 6.74316 | 9992 ft | 174 kts | 205° |
| 2026-05-06 16:49 | 61.62633 | 6.73352 | 9994 ft | 176 kts | 205° |
| 2026-05-06 16:49 | 61.61511 | 6.72398 | 9997 ft | 177 kts | 205° |
| 2026-05-06 16:50 | 61.60366 | 6.71432 | 9992 ft | 177 kts | 205° |
| 2026-05-06 16:50 | 61.59224 | 6.70474 | 9991 ft | 177 kts | 205° |
| 2026-05-06 16:50 | 61.58085 | 6.69508 | 9986 ft | 176 kts | 205° |
| 2026-05-06 16:50 | 61.57318 | 6.68859 | 9988 ft | 176 kts | 205° |
| 2026-05-06 16:51 | 61.55815 | 6.67572 | 9996 ft | 177 kts | 205° |
| 2026-05-06 16:51 | 61.54669 | 6.66603 | 9994 ft | 178 kts | 205° |
| 2026-05-06 16:51 | 61.53521 | 6.65643 | 9994 ft | 178 kts | 205° |
| 2026-05-06 16:51 | 61.52374 | 6.64688 | 9991 ft | 177 kts | 205° |
| 2026-05-06 16:52 | 61.51227 | 6.63736 | 9991 ft | 177 kts | 205° |
| 2026-05-06 16:52 | 61.50084 | 6.62782 | 9985 ft | 176 kts | 205° |
| 2026-05-06 16:52 | 61.48950 | 6.61834 | 9987 ft | 176 kts | 205° |
| 2026-05-06 16:52 | 61.47816 | 6.60877 | 9986 ft | 175 kts | 205° |
| 2026-05-06 16:53 | 61.46702 | 6.59942 | 9984 ft | 175 kts | 205° |
| 2026-05-06 16:53 | 61.45577 | 6.59000 | 9982 ft | 174 kts | 205° |
| 2026-05-06 16:53 | 61.44455 | 6.58064 | 9982 ft | 174 kts | 205° |
| 2026-05-06 16:53 | 61.43336 | 6.57133 | 9975 ft | 172 kts | 205° |
| 2026-05-06 16:54 | 61.42220 | 6.56205 | 9982 ft | 173 kts | 205° |
| 2026-05-06 16:54 | 61.41101 | 6.55267 | 9988 ft | 173 kts | 205° |
| 2026-05-06 16:54 | 61.39985 | 6.54325 | 9975 ft | 172 kts | 205° |
| 2026-05-06 16:54 | 61.38877 | 6.53399 | 9977 ft | 172 kts | 205° |
| 2026-05-06 16:55 | 61.37769 | 6.52477 | 9977 ft | 171 kts | 205° |
| 2026-05-06 16:55 | 61.36733 | 6.51391 | 9978 ft | 168 kts | 219° |
| 2026-05-06 16:55 | 61.35845 | 6.49820 | 9980 ft | 168 kts | 222° |
| 2026-05-06 16:55 | 61.34923 | 6.48328 | 9986 ft | 169 kts | 219° |
| 2026-05-06 16:56 | 61.33973 | 6.46874 | 9987 ft | 170 kts | 219° |
| 2026-05-06 16:56 | 61.33015 | 6.45416 | 9990 ft | 171 kts | 219° |
| 2026-05-06 16:56 | 61.32055 | 6.43945 | 9989 ft | 172 kts | 219° |
| 2026-05-06 16:56 | 61.31095 | 6.42473 | 9999 ft | 171 kts | 219° |
| 2026-05-06 16:57 | 61.30139 | 6.40994 | 10006 ft | 172 kts | 219° |
| 2026-05-06 16:57 | 61.29182 | 6.39506 | 10007 ft | 172 kts | 219° |
| 2026-05-06 16:57 | 61.28236 | 6.38031 | 10004 ft | 172 kts | 219° |
| 2026-05-06 16:57 | 61.27282 | 6.36541 | 9999 ft | 171 kts | 219° |
| 2026-05-06 16:58 | 61.26330 | 6.35059 | 10004 ft | 171 kts | 219° |
| 2026-05-06 16:58 | 61.25376 | 6.33564 | 10008 ft | 172 kts | 219° |
| 2026-05-06 16:58 | 61.24414 | 6.32068 | 10009 ft | 173 kts | 219° |
| 2026-05-06 16:58 | 61.23452 | 6.30571 | 10006 ft | 172 kts | 219° |
| 2026-05-06 16:59 | 61.22492 | 6.29081 | 10007 ft | 173 kts | 219° |
| 2026-05-06 16:59 | 61.21528 | 6.27588 | 10009 ft | 173 kts | 219° |
| 2026-05-06 16:59 | 61.20566 | 6.26087 | 10008 ft | 173 kts | 219° |
| 2026-05-06 16:59 | 61.19603 | 6.24580 | 10013 ft | 174 kts | 219° |
| 2026-05-06 17:00 | 61.18648 | 6.23089 | 10009 ft | 174 kts | 220° |
| 2026-05-06 17:00 | 61.17678 | 6.21588 | 10014 ft | 174 kts | 219° |
| 2026-05-06 17:00 | 61.16707 | 6.20081 | 10015 ft | 174 kts | 220° |
| 2026-05-06 17:00 | 61.15734 | 6.18583 | 10012 ft | 174 kts | 219° |
| 2026-05-06 17:01 | 61.14764 | 6.17090 | 10010 ft | 174 kts | 220° |
| 2026-05-06 17:01 | 61.13796 | 6.15601 | 10008 ft | 173 kts | 219° |
| 2026-05-06 17:01 | 61.13156 | 6.14616 | 10008 ft | 173 kts | 219° |
| 2026-05-06 17:01 | 61.11865 | 6.12625 | 10007 ft | 173 kts | 219° |
| 2026-05-06 17:02 | 61.11225 | 6.11641 | 10007 ft | 173 kts | 219° |
| 2026-05-06 17:02 | 61.10256 | 6.10159 | 10006 ft | 173 kts | 219° |
| 2026-05-06 17:02 | 61.08981 | 6.08199 | 10018 ft | 172 kts | 220° |
| 2026-05-06 17:02 | 61.08022 | 6.06712 | 10020 ft | 172 kts | 219° |
| 2026-05-06 17:03 | 61.07062 | 6.05236 | 10019 ft | 172 kts | 220° |
| 2026-05-06 17:03 | 61.06103 | 6.03765 | 10021 ft | 172 kts | 220° |
| 2026-05-06 17:03 | 61.05467 | 6.02787 | 10026 ft | 172 kts | 220° |
| 2026-05-06 17:03 | 61.04506 | 6.01303 | 10025 ft | 173 kts | 220° |
| 2026-05-06 17:04 | 61.03539 | 5.99819 | 10029 ft | 174 kts | 219° |
| 2026-05-06 17:04 | 61.02569 | 5.98327 | 10026 ft | 174 kts | 219° |
| 2026-05-06 17:04 | 61.01597 | 5.96850 | 10025 ft | 174 kts | 219° |
| 2026-05-06 17:04 | 61.00625 | 5.95372 | 10025 ft | 174 kts | 219° |
| 2026-05-06 17:05 | 60.99339 | 5.93413 | 10023 ft | 173 kts | 219° |
| 2026-05-06 17:05 | 60.98685 | 5.92414 | 10023 ft | 173 kts | 219° |
| 2026-05-06 17:05 | 60.97716 | 5.90935 | 10024 ft | 173 kts | 219° |
| 2026-05-06 17:05 | 60.96761 | 5.89478 | 10029 ft | 173 kts | 219° |
| 2026-05-06 17:06 | 60.95793 | 5.87993 | 10029 ft | 174 kts | 219° |
| 2026-05-06 17:06 | 60.94820 | 5.86509 | 10030 ft | 174 kts | 219° |
| 2026-05-06 17:06 | 60.93849 | 5.85031 | 10026 ft | 173 kts | 219° |
| 2026-05-06 17:06 | 60.92879 | 5.83564 | 10026 ft | 173 kts | 220° |
| 2026-05-06 17:07 | 60.91912 | 5.82100 | 10022 ft | 172 kts | 219° |
| 2026-05-06 17:07 | 60.90946 | 5.80643 | 10018 ft | 172 kts | 219° |
| 2026-05-06 17:07 | 60.89992 | 5.79205 | 10023 ft | 173 kts | 219° |
| 2026-05-06 17:07 | 60.89025 | 5.77741 | 10026 ft | 173 kts | 219° |
| 2026-05-06 17:08 | 60.88056 | 5.76270 | 10037 ft | 173 kts | 219° |
| 2026-05-06 17:08 | 60.87081 | 5.74797 | 10040 ft | 174 kts | 219° |
| 2026-05-06 17:08 | 60.86106 | 5.73318 | 10039 ft | 174 kts | 219° |
| 2026-05-06 17:08 | 60.85126 | 5.71839 | 10044 ft | 175 kts | 219° |
| 2026-05-06 17:09 | 60.84142 | 5.70349 | 10048 ft | 176 kts | 219° |
| 2026-05-06 17:09 | 60.83157 | 5.68860 | 10044 ft | 176 kts | 219° |
| 2026-05-06 17:09 | 60.82172 | 5.67376 | 10043 ft | 175 kts | 219° |
| 2026-05-06 17:09 | 60.81189 | 5.65896 | 10042 ft | 175 kts | 219° |
| 2026-05-06 17:10 | 60.80209 | 5.64422 | 10039 ft | 175 kts | 219° |
| 2026-05-06 17:10 | 60.79225 | 5.62950 | 10041 ft | 175 kts | 219° |
| 2026-05-06 17:10 | 60.78255 | 5.61496 | 10041 ft | 175 kts | 219° |
| 2026-05-06 17:10 | 60.77250 | 5.59984 | 9730 ft | 183 kts | 219° |
| 2026-05-06 17:11 | 60.76261 | 5.58502 | 9334 ft | 171 kts | 219° |
| 2026-05-06 17:11 | 60.75285 | 5.57037 | 8953 ft | 180 kts | 219° |
| 2026-05-06 17:11 | 60.74241 | 5.55474 | 8588 ft | 191 kts | 219° |
| 2026-05-06 17:11 | 60.73171 | 5.53872 | 8213 ft | 190 kts | 219° |
| 2026-05-06 17:12 | 60.72114 | 5.52291 | 7832 ft | 187 kts | 219° |
| 2026-05-06 17:12 | 60.71070 | 5.50736 | 7473 ft | 186 kts | 219° |
| 2026-05-06 17:12 | 60.70032 | 5.49192 | 7120 ft | 182 kts | 219° |
| 2026-05-06 17:12 | 60.69065 | 5.47765 | 7187 ft | 163 kts | 219° |
| 2026-05-06 17:13 | 60.68289 | 5.46147 | 7233 ft | 169 kts | 235° |
| 2026-05-06 17:13 | 60.67586 | 5.44124 | 7259 ft | 179 kts | 237° |
| 2026-05-06 17:13 | 60.66890 | 5.41978 | 7254 ft | 184 kts | 238° |
| 2026-05-06 17:13 | 60.66186 | 5.39762 | 7258 ft | 188 kts | 239° |
| 2026-05-06 17:14 | 60.65478 | 5.37509 | 7228 ft | 187 kts | 239° |
| 2026-05-06 17:14 | 60.64809 | 5.35369 | 7027 ft | 171 kts | 239° |
| 2026-05-06 17:14 | 60.64178 | 5.33355 | 6761 ft | 168 kts | 239° |
| 2026-05-06 17:14 | 60.63531 | 5.31295 | 6508 ft | 178 kts | 239° |
| 2026-05-06 17:15 | 60.62859 | 5.29160 | 6244 ft | 178 kts | 239° |
| 2026-05-06 17:15 | 60.62197 | 5.27064 | 5969 ft | 172 kts | 239° |
| 2026-05-06 17:15 | 60.61552 | 5.25023 | 5699 ft | 173 kts | 239° |
| 2026-05-06 17:15 | 60.60898 | 5.22958 | 5432 ft | 174 kts | 239° |
| 2026-05-06 17:16 | 60.60274 | 5.21005 | 5226 ft | 161 kts | 239° |
| 2026-05-06 17:16 | 60.59683 | 5.19155 | 5083 ft | 148 kts | 239° |
| 2026-05-06 17:16 | 60.59099 | 5.17338 | 4929 ft | 157 kts | 239° |
| 2026-05-06 17:16 | 60.58496 | 5.15456 | 4769 ft | 158 kts | 239° |
| 2026-05-06 17:17 | 60.57902 | 5.13609 | 4603 ft | 156 kts | 239° |
| 2026-05-06 17:17 | 60.57311 | 5.11767 | 4451 ft | 155 kts | 239° |
| 2026-05-06 17:17 | 60.56730 | 5.09934 | 4294 ft | 155 kts | 239° |
| 2026-05-06 17:17 | 60.56147 | 5.08086 | 4159 ft | 155 kts | 239° |
| 2026-05-06 17:18 | 60.55372 | 5.06553 | 4096 ft | 162 kts | 208° |
| 2026-05-06 17:18 | 60.54252 | 5.06454 | 4067 ft | 167 kts | 165° |
| 2026-05-06 17:18 | 60.53291 | 5.07633 | 4057 ft | 161 kts | 146° |
| 2026-05-06 17:18 | 60.52415 | 5.09009 | 4003 ft | 159 kts | 146° |
| 2026-05-06 17:19 | 60.51515 | 5.10319 | 3902 ft | 159 kts | 148° |
| 2026-05-06 17:19 | 60.50705 | 5.11427 | 3813 ft | 163 kts | 149° |
| 2026-05-06 17:19 | 60.49752 | 5.12685 | 3709 ft | 164 kts | 151° |
| 2026-05-06 17:19 | 60.48785 | 5.13928 | 3603 ft | 165 kts | 151° |
| 2026-05-06 17:20 | 60.47797 | 5.15091 | 3501 ft | 166 kts | 162° |
| 2026-05-06 17:20 | 60.46693 | 5.15766 | 3409 ft | 164 kts | 170° |
| 2026-05-06 17:20 | 60.45582 | 5.16289 | 3311 ft | 163 kts | 172° |
| 2026-05-06 17:20 | 60.44464 | 5.16741 | 3133 ft | 166 kts | 173° |
| 2026-05-06 17:21 | 60.43331 | 5.17134 | 2916 ft | 164 kts | 175° |
| 2026-05-06 17:21 | 60.42226 | 5.17483 | 2700 ft | 159 kts | 175° |
| 2026-05-06 17:21 | 60.41169 | 5.17810 | 2459 ft | 153 kts | 175° |
| 2026-05-06 17:21 | 60.40117 | 5.18137 | 2220 ft | 152 kts | 176° |
| 2026-05-06 17:22 | 60.39081 | 5.18486 | 2014 ft | 151 kts | 173° |
| 2026-05-06 17:22 | 60.38038 | 5.18880 | 1810 ft | 154 kts | 173° |
| 2026-05-06 17:22 | 60.36987 | 5.19269 | 1587 ft | 153 kts | 173° |
| 2026-05-06 17:22 | 60.35981 | 5.19614 | 1355 ft | 138 kts | 173° |
| 2026-05-06 17:23 | 60.35074 | 5.19913 | 1177 ft | 126 kts | 175° |
| 2026-05-06 17:23 | 60.34235 | 5.20168 | 980 ft | 119 kts | 175° |
| 2026-05-06 17:23 | 60.33412 | 5.20426 | 841 ft | 122 kts | 173° |
| 2026-05-06 17:23 | 60.32578 | 5.20701 | 679 ft | 115 kts | 172° |
| 2026-05-06 17:24 | 60.31833 | 5.20969 | 512 ft | 109 kts | 171° |
| 2026-05-06 17:24 | 60.31105 | 5.21209 | 368 ft | 103 kts | 170° |
| 2026-05-06 17:24 | 60.30436 | 5.21447 | 224 ft | 92 kts | 171° |
| 2026-05-06 17:24 | 60.29863 | 5.21643 | 157 ft | 72 kts | 170° |
| 2026-05-06 17:25 | 60.29553 | 5.21747 | 148 ft | 28 kts | 168° |
| 2026-05-06 17:25 | 60.29388 | 5.21870 | 155 ft | 13 kts | 99° |
| 2026-05-06 17:25 | 60.29389 | 5.21990 | 156 ft | 7 kts | 83° |
| 2026-05-06 17:25 | 60.29389 | 5.22003 | 156 ft | 0 kts | 86° |
| 2026-05-06 17:27 | 60.29396 | 5.22068 | 157 ft | 9 kts | 67° |
| 2026-05-06 17:27 | 60.29475 | 5.22095 | 155 ft | 15 kts | 351° |
| 2026-05-06 17:28 | 60.29575 | 5.22062 | 150 ft | 16 kts | 349° |
| 2026-05-06 17:28 | 60.29681 | 5.22024 | 147 ft | 13 kts | 351° |
| 2026-05-06 17:28 | 60.29734 | 5.22125 | 147 ft | 13 kts | 73° |
| 2026-05-06 17:28 | 60.29746 | 5.22297 | 146 ft | 9 kts | 81° |
| 2026-05-06 17:29 | 60.29741 | 5.22348 | 146 ft | 1 kts | 141° |
| 2026-05-06 17:29 | 60.29724 | 5.22369 | 146 ft | 7 kts | 156° |
| 2026-05-06 17:29 | 60.29680 | 5.22386 | 147 ft | 6 kts | 173° |
| 2026-05-06 17:29 | 60.29631 | 5.22406 | 149 ft | 8 kts | 170° |
| 2026-05-06 17:30 | 60.29585 | 5.22422 | 149 ft | 8 kts | 169° |
| 2026-05-06 17:30 | 60.29532 | 5.22441 | 148 ft | 8 kts | 160° |
| 2026-05-06 17:30 | 60.29520 | 5.22494 | 151 ft | 5 kts | 82° |
| 2026-05-06 17:30 | 60.29510 | 5.22604 | 151 ft | 6 kts | 141° |
| 2026-05-06 17:31 | 60.29482 | 5.22625 | 151 ft | 6 kts | 165° |
| 2026-05-06 17:31 | 60.29475 | 5.22629 | 151 ft | 0 kts | 165° |